sensor_id;sensor_type;location;lat;lon;timestamp;P1;durP1;ratioP1;P2;durP2;ratioP2
17382;SDS011;8809;51.892;8.384;2022-10-31T00:00:16;3.55;;;2.70;;
17382;SDS011;8809;51.892;8.384;2022-10-31T00:02:44;4.25;;;3.20;;
17382;SDS011;8809;51.892;8.384;2022-10-31T00:05:11;3.70;;;3.28;;
17382;SDS011;8809;51.892;8.384;2022-10-31T00:07:39;5.63;;;3.75;;
17382;SDS011;8809;51.892;8.384;2022-10-31T00:10:08;5.32;;;3.72;;
17382;SDS011;8809;51.892;8.384;2022-10-31T00:12:36;4.70;;;3.55;;
17382;SDS011;8809;51.892;8.384;2022-10-31T00:15:04;6.20;;;3.80;;
17382;SDS011;8809;51.892;8.384;2022-10-31T00:17:31;6.88;;;3.90;;
17382;SDS011;8809;51.892;8.384;2022-10-31T00:20:01;6.28;;;4.15;;
17382;SDS011;8809;51.892;8.384;2022-10-31T00:22:29;6.18;;;4.50;;
17382;SDS011;8809;51.892;8.384;2022-10-31T00:24:57;5.63;;;3.90;;
17382;SDS011;8809;51.892;8.384;2022-10-31T00:27:24;6.03;;;4.30;;
17382;SDS011;8809;51.892;8.384;2022-10-31T00:29:51;5.50;;;4.03;;
17382;SDS011;8809;51.892;8.384;2022-10-31T00:32:18;5.05;;;3.70;;
17382;SDS011;8809;51.892;8.384;2022-10-31T00:34:45;5.95;;;4.40;;
17382;SDS011;8809;51.892;8.384;2022-10-31T00:37:11;4.70;;;3.70;;
17382;SDS011;8809;51.892;8.384;2022-10-31T00:39:38;5.07;;;3.80;;
17382;SDS011;8809;51.892;8.384;2022-10-31T00:42:07;5.57;;;4.05;;
17382;SDS011;8809;51.892;8.384;2022-10-31T00:44:34;4.63;;;3.50;;
17382;SDS011;8809;51.892;8.384;2022-10-31T00:47:00;6.20;;;4.28;;
17382;SDS011;8809;51.892;8.384;2022-10-31T00:49:27;5.47;;;4.00;;
17382;SDS011;8809;51.892;8.384;2022-10-31T00:51:54;5.65;;;3.95;;
17382;SDS011;8809;51.892;8.384;2022-10-31T00:54:21;5.95;;;4.18;;
17382;SDS011;8809;51.892;8.384;2022-10-31T00:56:48;4.78;;;3.78;;
17382;SDS011;8809;51.892;8.384;2022-10-31T00:59:16;5.03;;;4.13;;
17382;SDS011;8809;51.892;8.384;2022-10-31T01:01:43;5.30;;;4.38;;
17382;SDS011;8809;51.892;8.384;2022-10-31T01:04:10;5.72;;;4.22;;
17382;SDS011;8809;51.892;8.384;2022-10-31T01:06:37;5.13;;;4.10;;
17382;SDS011;8809;51.892;8.384;2022-10-31T01:09:04;5.90;;;4.13;;
17382;SDS011;8809;51.892;8.384;2022-10-31T01:11:31;5.72;;;4.25;;
17382;SDS011;8809;51.892;8.384;2022-10-31T01:13:58;6.43;;;4.15;;
17382;SDS011;8809;51.892;8.384;2022-10-31T01:16:27;5.45;;;4.05;;
17382;SDS011;8809;51.892;8.384;2022-10-31T01:18:55;5.93;;;4.32;;
17382;SDS011;8809;51.892;8.384;2022-10-31T01:21:22;5.55;;;4.13;;
17382;SDS011;8809;51.892;8.384;2022-10-31T01:23:51;5.10;;;3.80;;
17382;SDS011;8809;51.892;8.384;2022-10-31T01:26:20;4.18;;;3.47;;
17382;SDS011;8809;51.892;8.384;2022-10-31T01:28:49;4.75;;;3.80;;
17382;SDS011;8809;51.892;8.384;2022-10-31T01:31:18;5.65;;;4.20;;
17382;SDS011;8809;51.892;8.384;2022-10-31T01:33:47;5.65;;;4.18;;
17382;SDS011;8809;51.892;8.384;2022-10-31T01:36:16;5.82;;;4.40;;
17382;SDS011;8809;51.892;8.384;2022-10-31T01:38:44;5.35;;;3.95;;
17382;SDS011;8809;51.892;8.384;2022-10-31T01:41:12;5.25;;;4.28;;
17382;SDS011;8809;51.892;8.384;2022-10-31T01:43:44;4.63;;;4.10;;
17382;SDS011;8809;51.892;8.384;2022-10-31T01:46:13;5.93;;;4.00;;
17382;SDS011;8809;51.892;8.384;2022-10-31T01:48:44;5.07;;;4.00;;
17382;SDS011;8809;51.892;8.384;2022-10-31T01:51:12;5.60;;;3.88;;
17382;SDS011;8809;51.892;8.384;2022-10-31T01:53:41;6.47;;;4.00;;
17382;SDS011;8809;51.892;8.384;2022-10-31T01:56:10;4.57;;;3.55;;
17382;SDS011;8809;51.892;8.384;2022-10-31T01:58:38;5.65;;;4.28;;
17382;SDS011;8809;51.892;8.384;2022-10-31T02:01:06;4.72;;;3.83;;
17382;SDS011;8809;51.892;8.384;2022-10-31T02:03:33;5.78;;;4.25;;
17382;SDS011;8809;51.892;8.384;2022-10-31T02:06:00;7.63;;;4.50;;
17382;SDS011;8809;51.892;8.384;2022-10-31T02:08:31;6.70;;;4.30;;
17382;SDS011;8809;51.892;8.384;2022-10-31T02:11:01;5.43;;;4.00;;
17382;SDS011;8809;51.892;8.384;2022-10-31T02:13:28;4.97;;;3.72;;
17382;SDS011;8809;51.892;8.384;2022-10-31T02:15:57;4.95;;;3.88;;
17382;SDS011;8809;51.892;8.384;2022-10-31T02:18:25;5.80;;;4.03;;
17382;SDS011;8809;51.892;8.384;2022-10-31T02:20:57;5.30;;;4.07;;
17382;SDS011;8809;51.892;8.384;2022-10-31T02:26:43;4.55;;;3.95;;
17382;SDS011;8809;51.892;8.384;2022-10-31T02:32:42;4.63;;;3.80;;
17382;SDS011;8809;51.892;8.384;2022-10-31T02:35:17;5.75;;;3.83;;
17382;SDS011;8809;51.892;8.384;2022-10-31T02:37:56;5.22;;;3.80;;
17382;SDS011;8809;51.892;8.384;2022-10-31T02:40:30;4.55;;;3.65;;
17382;SDS011;8809;51.892;8.384;2022-10-31T02:43:02;4.97;;;3.65;;
17382;SDS011;8809;51.892;8.384;2022-10-31T02:45:34;4.65;;;3.50;;
17382;SDS011;8809;51.892;8.384;2022-10-31T02:48:09;5.10;;;3.80;;
17382;SDS011;8809;51.892;8.384;2022-10-31T02:50:40;5.65;;;4.03;;
17382;SDS011;8809;51.892;8.384;2022-10-31T02:53:10;4.25;;;3.55;;
17382;SDS011;8809;51.892;8.384;2022-10-31T02:55:50;4.65;;;3.10;;
17382;SDS011;8809;51.892;8.384;2022-10-31T02:58:27;5.45;;;4.10;;
17382;SDS011;8809;51.892;8.384;2022-10-31T03:06:51;3.83;;;3.15;;
17382;SDS011;8809;51.892;8.384;2022-10-31T03:09:25;4.13;;;2.83;;
17382;SDS011;8809;51.892;8.384;2022-10-31T03:12:01;3.45;;;3.10;;
17382;SDS011;8809;51.892;8.384;2022-10-31T03:14:35;3.97;;;3.20;;
17382;SDS011;8809;51.892;8.384;2022-10-31T03:17:14;3.17;;;2.75;;
17382;SDS011;8809;51.892;8.384;2022-10-31T03:19:48;4.40;;;3.20;;
17382;SDS011;8809;51.892;8.384;2022-10-31T03:22:19;3.35;;;3.05;;
17382;SDS011;8809;51.892;8.384;2022-10-31T03:24:48;3.78;;;3.30;;
17382;SDS011;8809;51.892;8.384;2022-10-31T03:27:18;5.53;;;3.95;;
17382;SDS011;8809;51.892;8.384;2022-10-31T03:29:49;5.30;;;4.10;;
17382;SDS011;8809;51.892;8.384;2022-10-31T03:32:19;4.65;;;4.13;;
17382;SDS011;8809;51.892;8.384;2022-10-31T03:34:53;5.78;;;4.28;;
17382;SDS011;8809;51.892;8.384;2022-10-31T03:37:23;4.53;;;3.83;;
17382;SDS011;8809;51.892;8.384;2022-10-31T03:39:53;5.10;;;4.40;;
17382;SDS011;8809;51.892;8.384;2022-10-31T03:42:24;6.05;;;4.18;;
17382;SDS011;8809;51.892;8.384;2022-10-31T03:44:56;5.53;;;4.32;;
17382;SDS011;8809;51.892;8.384;2022-10-31T03:47:26;4.90;;;4.18;;
17382;SDS011;8809;51.892;8.384;2022-10-31T03:49:54;6.38;;;4.55;;
17382;SDS011;8809;51.892;8.384;2022-10-31T03:52:23;7.25;;;4.68;;
17382;SDS011;8809;51.892;8.384;2022-10-31T03:54:54;4.72;;;4.00;;
17382;SDS011;8809;51.892;8.384;2022-10-31T03:57:24;5.10;;;4.25;;
17382;SDS011;8809;51.892;8.384;2022-10-31T03:59:55;5.93;;;4.20;;
17382;SDS011;8809;51.892;8.384;2022-10-31T04:02:27;5.20;;;4.45;;
17382;SDS011;8809;51.892;8.384;2022-10-31T04:04:59;6.00;;;4.45;;
17382;SDS011;8809;51.892;8.384;2022-10-31T04:07:27;5.70;;;4.45;;
17382;SDS011;8809;51.892;8.384;2022-10-31T04:09:57;6.28;;;4.50;;
17382;SDS011;8809;51.892;8.384;2022-10-31T04:12:27;5.50;;;3.83;;
17382;SDS011;8809;51.892;8.384;2022-10-31T04:14:56;5.55;;;4.20;;
17382;SDS011;8809;51.892;8.384;2022-10-31T04:17:24;6.38;;;5.28;;
17382;SDS011;8809;51.892;8.384;2022-10-31T04:19:59;5.72;;;4.53;;
17382;SDS011;8809;51.892;8.384;2022-10-31T04:22:26;6.10;;;4.63;;
17382;SDS011;8809;51.892;8.384;2022-10-31T04:24:53;4.97;;;4.22;;
17382;SDS011;8809;51.892;8.384;2022-10-31T04:27:20;7.38;;;4.45;;
17382;SDS011;8809;51.892;8.384;2022-10-31T04:29:47;4.65;;;4.13;;
17382;SDS011;8809;51.892;8.384;2022-10-31T04:32:14;7.63;;;4.95;;
17382;SDS011;8809;51.892;8.384;2022-10-31T04:34:41;6.53;;;4.72;;
17382;SDS011;8809;51.892;8.384;2022-10-31T04:37:09;7.68;;;4.68;;
17382;SDS011;8809;51.892;8.384;2022-10-31T04:39:36;5.97;;;4.55;;
17382;SDS011;8809;51.892;8.384;2022-10-31T04:42:03;5.53;;;4.40;;
17382;SDS011;8809;51.892;8.384;2022-10-31T04:44:30;6.40;;;4.60;;
17382;SDS011;8809;51.892;8.384;2022-10-31T04:46:58;5.57;;;4.45;;
17382;SDS011;8809;51.892;8.384;2022-10-31T04:49:24;6.20;;;4.60;;
17382;SDS011;8809;51.892;8.384;2022-10-31T04:51:51;5.55;;;4.65;;
17382;SDS011;8809;51.892;8.384;2022-10-31T04:54:19;5.63;;;4.60;;
17382;SDS011;8809;51.892;8.384;2022-10-31T04:56:46;5.53;;;4.43;;
17382;SDS011;8809;51.892;8.384;2022-10-31T04:59:13;5.25;;;4.63;;
17382;SDS011;8809;51.892;8.384;2022-10-31T05:01:40;6.22;;;4.78;;
17382;SDS011;8809;51.892;8.384;2022-10-31T05:04:07;6.13;;;4.85;;
17382;SDS011;8809;51.892;8.384;2022-10-31T05:06:34;5.40;;;4.47;;
17382;SDS011;8809;51.892;8.384;2022-10-31T05:09:01;6.57;;;4.97;;
17382;SDS011;8809;51.892;8.384;2022-10-31T05:11:29;6.13;;;4.45;;
17382;SDS011;8809;51.892;8.384;2022-10-31T05:13:56;5.50;;;4.55;;
17382;SDS011;8809;51.892;8.384;2022-10-31T05:16:23;6.82;;;5.18;;
17382;SDS011;8809;51.892;8.384;2022-10-31T05:18:50;5.35;;;4.43;;
17382;SDS011;8809;51.892;8.384;2022-10-31T05:21:17;6.68;;;4.75;;
17382;SDS011;8809;51.892;8.384;2022-10-31T05:23:44;5.78;;;4.43;;
17382;SDS011;8809;51.892;8.384;2022-10-31T05:26:11;5.68;;;4.38;;
17382;SDS011;8809;51.892;8.384;2022-10-31T05:28:39;5.28;;;4.47;;
17382;SDS011;8809;51.892;8.384;2022-10-31T05:31:06;4.97;;;4.25;;
17382;SDS011;8809;51.892;8.384;2022-10-31T05:33:33;5.65;;;4.13;;
17382;SDS011;8809;51.892;8.384;2022-10-31T05:36:00;4.93;;;4.03;;
17382;SDS011;8809;51.892;8.384;2022-10-31T05:38:27;7.18;;;4.35;;
17382;SDS011;8809;51.892;8.384;2022-10-31T05:40:54;6.32;;;4.40;;
17382;SDS011;8809;51.892;8.384;2022-10-31T05:43:22;6.80;;;4.63;;
17382;SDS011;8809;51.892;8.384;2022-10-31T05:45:53;5.93;;;4.47;;
17382;SDS011;8809;51.892;8.384;2022-10-31T05:48:20;7.28;;;4.97;;
17382;SDS011;8809;51.892;8.384;2022-10-31T05:50:47;6.93;;;4.68;;
17382;SDS011;8809;51.892;8.384;2022-10-31T05:53:15;5.53;;;4.47;;
17382;SDS011;8809;51.892;8.384;2022-10-31T05:55:42;5.13;;;4.28;;
17382;SDS011;8809;51.892;8.384;2022-10-31T05:58:09;5.63;;;4.50;;
17382;SDS011;8809;51.892;8.384;2022-10-31T06:00:38;6.78;;;4.45;;
17382;SDS011;8809;51.892;8.384;2022-10-31T06:03:07;4.65;;;4.15;;
17382;SDS011;8809;51.892;8.384;2022-10-31T06:05:35;5.93;;;3.90;;
17382;SDS011;8809;51.892;8.384;2022-10-31T06:08:02;5.65;;;4.10;;
17382;SDS011;8809;51.892;8.384;2022-10-31T06:10:29;6.70;;;4.53;;
17382;SDS011;8809;51.892;8.384;2022-10-31T06:12:56;7.85;;;4.47;;
17382;SDS011;8809;51.892;8.384;2022-10-31T06:15:23;5.57;;;4.35;;
17382;SDS011;8809;51.892;8.384;2022-10-31T06:17:57;5.38;;;4.30;;
17382;SDS011;8809;51.892;8.384;2022-10-31T06:20:26;4.90;;;3.92;;
17382;SDS011;8809;51.892;8.384;2022-10-31T06:22:53;5.68;;;4.25;;
17382;SDS011;8809;51.892;8.384;2022-10-31T06:25:20;4.72;;;3.92;;
17382;SDS011;8809;51.892;8.384;2022-10-31T06:27:47;4.57;;;3.53;;
17382;SDS011;8809;51.892;8.384;2022-10-31T06:30:14;6.57;;;4.10;;
17382;SDS011;8809;51.892;8.384;2022-10-31T06:32:41;4.25;;;3.67;;
17382;SDS011;8809;51.892;8.384;2022-10-31T06:35:08;5.50;;;4.03;;
17382;SDS011;8809;51.892;8.384;2022-10-31T06:37:37;5.28;;;4.22;;
17382;SDS011;8809;51.892;8.384;2022-10-31T06:40:04;4.95;;;4.03;;
17382;SDS011;8809;51.892;8.384;2022-10-31T06:42:34;5.88;;;3.90;;
17382;SDS011;8809;51.892;8.384;2022-10-31T06:45:01;5.70;;;4.15;;
17382;SDS011;8809;51.892;8.384;2022-10-31T06:47:28;4.40;;;3.70;;
17382;SDS011;8809;51.892;8.384;2022-10-31T06:49:55;5.63;;;4.30;;
17382;SDS011;8809;51.892;8.384;2022-10-31T06:52:22;5.60;;;3.95;;
17382;SDS011;8809;51.892;8.384;2022-10-31T06:54:51;5.90;;;4.43;;
17382;SDS011;8809;51.892;8.384;2022-10-31T06:57:17;5.70;;;4.30;;
17382;SDS011;8809;51.892;8.384;2022-10-31T06:59:44;5.50;;;4.55;;
17382;SDS011;8809;51.892;8.384;2022-10-31T07:02:12;5.82;;;4.50;;
17382;SDS011;8809;51.892;8.384;2022-10-31T07:04:39;5.95;;;4.32;;
17382;SDS011;8809;51.892;8.384;2022-10-31T07:07:06;6.22;;;4.43;;
17382;SDS011;8809;51.892;8.384;2022-10-31T07:09:34;6.50;;;4.10;;
17382;SDS011;8809;51.892;8.384;2022-10-31T07:12:02;5.28;;;4.22;;
17382;SDS011;8809;51.892;8.384;2022-10-31T07:14:29;4.25;;;3.85;;
17382;SDS011;8809;51.892;8.384;2022-10-31T07:16:56;4.47;;;4.03;;
17382;SDS011;8809;51.892;8.384;2022-10-31T07:19:23;5.03;;;4.05;;
17382;SDS011;8809;51.892;8.384;2022-10-31T07:21:50;6.63;;;4.90;;
17382;SDS011;8809;51.892;8.384;2022-10-31T07:24:17;4.97;;;3.97;;
17382;SDS011;8809;51.892;8.384;2022-10-31T07:26:45;5.32;;;4.07;;
17382;SDS011;8809;51.892;8.384;2022-10-31T07:29:14;5.97;;;4.32;;
17382;SDS011;8809;51.892;8.384;2022-10-31T07:31:40;4.60;;;4.18;;
17382;SDS011;8809;51.892;8.384;2022-10-31T07:34:09;5.63;;;4.32;;
17382;SDS011;8809;51.892;8.384;2022-10-31T07:36:37;4.28;;;3.88;;
17382;SDS011;8809;51.892;8.384;2022-10-31T07:39:04;5.72;;;4.10;;
17382;SDS011;8809;51.892;8.384;2022-10-31T07:41:31;5.72;;;4.15;;
17382;SDS011;8809;51.892;8.384;2022-10-31T07:43:58;6.50;;;4.65;;
17382;SDS011;8809;51.892;8.384;2022-10-31T07:46:26;6.55;;;4.65;;
17382;SDS011;8809;51.892;8.384;2022-10-31T07:48:53;6.30;;;4.78;;
17382;SDS011;8809;51.892;8.384;2022-10-31T07:51:20;6.38;;;4.80;;
17382;SDS011;8809;51.892;8.384;2022-10-31T07:53:48;6.30;;;4.55;;
17382;SDS011;8809;51.892;8.384;2022-10-31T07:56:15;6.70;;;4.50;;
17382;SDS011;8809;51.892;8.384;2022-10-31T07:58:42;5.80;;;4.43;;
17382;SDS011;8809;51.892;8.384;2022-10-31T08:01:09;6.55;;;4.30;;
17382;SDS011;8809;51.892;8.384;2022-10-31T08:03:37;5.35;;;4.07;;
17382;SDS011;8809;51.892;8.384;2022-10-31T08:06:05;6.22;;;4.47;;
17382;SDS011;8809;51.892;8.384;2022-10-31T08:08:32;6.70;;;4.50;;
17382;SDS011;8809;51.892;8.384;2022-10-31T08:10:59;5.55;;;4.22;;
17382;SDS011;8809;51.892;8.384;2022-10-31T08:13:26;5.63;;;4.35;;
17382;SDS011;8809;51.892;8.384;2022-10-31T08:15:53;7.25;;;5.10;;
17382;SDS011;8809;51.892;8.384;2022-10-31T08:18:21;7.05;;;4.72;;
17382;SDS011;8809;51.892;8.384;2022-10-31T08:20:50;6.72;;;5.00;;
17382;SDS011;8809;51.892;8.384;2022-10-31T08:23:17;5.78;;;4.75;;
17382;SDS011;8809;51.892;8.384;2022-10-31T08:25:44;7.20;;;5.10;;
17382;SDS011;8809;51.892;8.384;2022-10-31T08:28:12;8.48;;;5.47;;
17382;SDS011;8809;51.892;8.384;2022-10-31T08:30:39;6.93;;;5.53;;
17382;SDS011;8809;51.892;8.384;2022-10-31T08:33:09;7.30;;;4.97;;
17382;SDS011;8809;51.892;8.384;2022-10-31T08:35:37;8.85;;;5.43;;
17382;SDS011;8809;51.892;8.384;2022-10-31T08:38:05;7.65;;;5.70;;
17382;SDS011;8809;51.892;8.384;2022-10-31T08:40:35;6.80;;;4.78;;
17382;SDS011;8809;51.892;8.384;2022-10-31T08:43:02;6.47;;;4.82;;
17382;SDS011;8809;51.892;8.384;2022-10-31T08:45:31;6.90;;;4.97;;
17382;SDS011;8809;51.892;8.384;2022-10-31T08:48:00;6.40;;;4.78;;
17382;SDS011;8809;51.892;8.384;2022-10-31T08:50:28;6.50;;;4.90;;
17382;SDS011;8809;51.892;8.384;2022-10-31T08:53:00;6.45;;;4.75;;
17382;SDS011;8809;51.892;8.384;2022-10-31T08:55:29;7.90;;;5.82;;
17382;SDS011;8809;51.892;8.384;2022-10-31T08:57:56;6.95;;;5.32;;
17382;SDS011;8809;51.892;8.384;2022-10-31T09:00:24;6.93;;;5.45;;
17382;SDS011;8809;51.892;8.384;2022-10-31T09:02:55;7.13;;;5.65;;
17382;SDS011;8809;51.892;8.384;2022-10-31T09:05:23;7.22;;;5.65;;
17382;SDS011;8809;51.892;8.384;2022-10-31T09:07:50;8.70;;;5.47;;
17382;SDS011;8809;51.892;8.384;2022-10-31T09:10:17;8.20;;;5.88;;
17382;SDS011;8809;51.892;8.384;2022-10-31T09:12:46;8.88;;;6.35;;
17382;SDS011;8809;51.892;8.384;2022-10-31T09:15:13;8.35;;;6.20;;
17382;SDS011;8809;51.892;8.384;2022-10-31T09:17:45;7.55;;;5.60;;
17382;SDS011;8809;51.892;8.384;2022-10-31T09:20:14;11.13;;;7.10;;
17382;SDS011;8809;51.892;8.384;2022-10-31T09:22:41;9.38;;;6.78;;
17382;SDS011;8809;51.892;8.384;2022-10-31T09:25:08;9.27;;;6.60;;
17382;SDS011;8809;51.892;8.384;2022-10-31T09:27:35;10.40;;;7.25;;
17382;SDS011;8809;51.892;8.384;2022-10-31T09:30:06;11.13;;;7.30;;
17382;SDS011;8809;51.892;8.384;2022-10-31T09:32:39;9.32;;;6.55;;
17382;SDS011;8809;51.892;8.384;2022-10-31T09:35:06;9.80;;;6.90;;
17382;SDS011;8809;51.892;8.384;2022-10-31T09:37:34;11.68;;;7.82;;
17382;SDS011;8809;51.892;8.384;2022-10-31T09:40:01;10.15;;;7.10;;
17382;SDS011;8809;51.892;8.384;2022-10-31T09:42:41;10.23;;;7.32;;
17382;SDS011;8809;51.892;8.384;2022-10-31T09:45:20;11.27;;;7.70;;
17382;SDS011;8809;51.892;8.384;2022-10-31T09:48:02;11.32;;;7.63;;
17382;SDS011;8809;51.892;8.384;2022-10-31T09:50:40;10.95;;;7.80;;
17382;SDS011;8809;51.892;8.384;2022-10-31T09:53:13;11.88;;;7.85;;
17382;SDS011;8809;51.892;8.384;2022-10-31T09:55:49;13.13;;;8.63;;
17382;SDS011;8809;51.892;8.384;2022-10-31T09:58:19;12.85;;;8.50;;
17382;SDS011;8809;51.892;8.384;2022-10-31T10:00:51;14.73;;;9.45;;
17382;SDS011;8809;51.892;8.384;2022-10-31T10:03:22;14.05;;;9.05;;
17382;SDS011;8809;51.892;8.384;2022-10-31T10:05:59;16.27;;;10.13;;
17382;SDS011;8809;51.892;8.384;2022-10-31T10:08:34;16.20;;;10.10;;
17382;SDS011;8809;51.892;8.384;2022-10-31T10:11:06;17.10;;;11.93;;
17382;SDS011;8809;51.892;8.384;2022-10-31T10:13:49;15.85;;;10.38;;
17382;SDS011;8809;51.892;8.384;2022-10-31T10:16:32;17.25;;;10.63;;
17382;SDS011;8809;51.892;8.384;2022-10-31T10:19:11;18.05;;;11.20;;
17382;SDS011;8809;51.892;8.384;2022-10-31T10:21:51;20.50;;;12.10;;
17382;SDS011;8809;51.892;8.384;2022-10-31T10:24:32;19.67;;;12.90;;
17382;SDS011;8809;51.892;8.384;2022-10-31T10:27:13;20.05;;;13.02;;
17382;SDS011;8809;51.892;8.384;2022-10-31T10:29:47;19.35;;;13.15;;
17382;SDS011;8809;51.892;8.384;2022-10-31T10:32:22;21.25;;;13.52;;
17382;SDS011;8809;51.892;8.384;2022-10-31T10:34:51;20.80;;;13.27;;
17382;SDS011;8809;51.892;8.384;2022-10-31T10:37:24;18.67;;;12.18;;
17382;SDS011;8809;51.892;8.384;2022-10-31T10:39:56;21.23;;;13.82;;
17382;SDS011;8809;51.892;8.384;2022-10-31T10:42:30;23.17;;;14.48;;
17382;SDS011;8809;51.892;8.384;2022-10-31T10:45:16;23.48;;;13.98;;
17382;SDS011;8809;51.892;8.384;2022-10-31T10:48:11;22.70;;;13.73;;
17382;SDS011;8809;51.892;8.384;2022-10-31T10:50:44;23.73;;;15.02;;
17382;SDS011;8809;51.892;8.384;2022-10-31T10:56:27;20.17;;;12.90;;
17382;SDS011;8809;51.892;8.384;2022-10-31T10:59:03;21.02;;;12.50;;
17382;SDS011;8809;51.892;8.384;2022-10-31T11:01:30;21.70;;;13.38;;
17382;SDS011;8809;51.892;8.384;2022-10-31T11:03:59;19.70;;;12.82;;
17382;SDS011;8809;51.892;8.384;2022-10-31T11:06:29;19.05;;;11.98;;
17382;SDS011;8809;51.892;8.384;2022-10-31T11:08:56;20.77;;;12.85;;
17382;SDS011;8809;51.892;8.384;2022-10-31T11:11:24;22.70;;;14.23;;
17382;SDS011;8809;51.892;8.384;2022-10-31T11:13:56;20.17;;;13.70;;
17382;SDS011;8809;51.892;8.384;2022-10-31T11:16:28;19.77;;;14.05;;
17382;SDS011;8809;51.892;8.384;2022-10-31T11:19:06;19.35;;;13.18;;
17382;SDS011;8809;51.892;8.384;2022-10-31T11:21:40;21.90;;;12.70;;
17382;SDS011;8809;51.892;8.384;2022-10-31T11:24:12;19.25;;;13.23;;
17382;SDS011;8809;51.892;8.384;2022-10-31T11:26:42;22.00;;;14.02;;
17382;SDS011;8809;51.892;8.384;2022-10-31T11:29:12;20.10;;;12.38;;
17382;SDS011;8809;51.892;8.384;2022-10-31T11:31:44;16.35;;;10.55;;
17382;SDS011;8809;51.892;8.384;2022-10-31T11:34:25;18.58;;;11.63;;
17382;SDS011;8809;51.892;8.384;2022-10-31T11:36:56;15.45;;;10.70;;
17382;SDS011;8809;51.892;8.384;2022-10-31T11:39:28;16.73;;;10.48;;
17382;SDS011;8809;51.892;8.384;2022-10-31T11:41:59;15.45;;;10.10;;
17382;SDS011;8809;51.892;8.384;2022-10-31T11:44:29;16.13;;;10.57;;
17382;SDS011;8809;51.892;8.384;2022-10-31T11:46:58;20.98;;;11.52;;
17382;SDS011;8809;51.892;8.384;2022-10-31T11:49:28;17.58;;;11.25;;
17382;SDS011;8809;51.892;8.384;2022-10-31T11:51:58;23.10;;;13.63;;
17382;SDS011;8809;51.892;8.384;2022-10-31T11:54:27;16.30;;;10.43;;
17382;SDS011;8809;51.892;8.384;2022-10-31T11:56:58;14.75;;;9.80;;
17382;SDS011;8809;51.892;8.384;2022-10-31T11:59:26;16.70;;;10.98;;
17382;SDS011;8809;51.892;8.384;2022-10-31T12:01:55;17.02;;;9.93;;
17382;SDS011;8809;51.892;8.384;2022-10-31T12:04:25;14.30;;;9.65;;
17382;SDS011;8809;51.892;8.384;2022-10-31T12:07:08;14.23;;;9.13;;
17382;SDS011;8809;51.892;8.384;2022-10-31T12:09:35;19.52;;;12.73;;
17382;SDS011;8809;51.892;8.384;2022-10-31T12:12:11;19.42;;;11.43;;
17382;SDS011;8809;51.892;8.384;2022-10-31T12:14:59;18.45;;;11.82;;
17382;SDS011;8809;51.892;8.384;2022-10-31T12:17:39;18.85;;;12.55;;
17382;SDS011;8809;51.892;8.384;2022-10-31T12:20:16;18.13;;;12.13;;
17382;SDS011;8809;51.892;8.384;2022-10-31T12:22:52;18.42;;;11.75;;
17382;SDS011;8809;51.892;8.384;2022-10-31T12:25:30;23.92;;;15.15;;
17382;SDS011;8809;51.892;8.384;2022-10-31T12:28:17;22.17;;;13.32;;
17382;SDS011;8809;51.892;8.384;2022-10-31T12:31:12;20.90;;;13.70;;
17382;SDS011;8809;51.892;8.384;2022-10-31T12:33:51;20.60;;;12.88;;
17382;SDS011;8809;51.892;8.384;2022-10-31T12:36:35;20.67;;;13.35;;
17382;SDS011;8809;51.892;8.384;2022-10-31T12:39:16;20.55;;;13.15;;
17382;SDS011;8809;51.892;8.384;2022-10-31T12:41:51;20.45;;;13.77;;
17382;SDS011;8809;51.892;8.384;2022-10-31T12:47:21;15.68;;;11.57;;
17382;SDS011;8809;51.892;8.384;2022-10-31T12:50:01;17.60;;;11.05;;
17382;SDS011;8809;51.892;8.384;2022-10-31T12:52:47;16.30;;;11.98;;
17382;SDS011;8809;51.892;8.384;2022-10-31T12:55:30;15.25;;;10.60;;
17382;SDS011;8809;51.892;8.384;2022-10-31T12:58:10;13.55;;;9.77;;
17382;SDS011;8809;51.892;8.384;2022-10-31T13:00:44;12.20;;;8.45;;
17382;SDS011;8809;51.892;8.384;2022-10-31T13:03:19;14.07;;;9.40;;
17382;SDS011;8809;51.892;8.384;2022-10-31T13:05:53;13.20;;;9.40;;
17382;SDS011;8809;51.892;8.384;2022-10-31T13:08:26;13.07;;;9.05;;
17382;SDS011;8809;51.892;8.384;2022-10-31T13:11:02;12.20;;;8.65;;
17382;SDS011;8809;51.892;8.384;2022-10-31T13:13:37;10.90;;;7.57;;
17382;SDS011;8809;51.892;8.384;2022-10-31T13:16:10;11.05;;;8.20;;
17382;SDS011;8809;51.892;8.384;2022-10-31T13:18:40;12.10;;;8.60;;
17382;SDS011;8809;51.892;8.384;2022-10-31T13:21:12;11.70;;;7.88;;
17382;SDS011;8809;51.892;8.384;2022-10-31T13:23:47;10.73;;;7.55;;
17382;SDS011;8809;51.892;8.384;2022-10-31T13:26:19;10.65;;;7.47;;
17382;SDS011;8809;51.892;8.384;2022-10-31T13:28:52;10.07;;;7.15;;
17382;SDS011;8809;51.892;8.384;2022-10-31T13:31:26;10.85;;;8.35;;
17382;SDS011;8809;51.892;8.384;2022-10-31T13:33:54;9.77;;;7.13;;
17382;SDS011;8809;51.892;8.384;2022-10-31T13:36:26;10.05;;;7.00;;
17382;SDS011;8809;51.892;8.384;2022-10-31T13:39:04;8.88;;;6.85;;
17382;SDS011;8809;51.892;8.384;2022-10-31T13:41:45;8.75;;;5.95;;
17382;SDS011;8809;51.892;8.384;2022-10-31T13:44:18;7.18;;;5.88;;
17382;SDS011;8809;51.892;8.384;2022-10-31T13:46:49;6.70;;;5.53;;
17382;SDS011;8809;51.892;8.384;2022-10-31T13:49:24;9.30;;;6.18;;
17382;SDS011;8809;51.892;8.384;2022-10-31T13:52:05;5.43;;;4.53;;
17382;SDS011;8809;51.892;8.384;2022-10-31T13:54:41;6.40;;;4.40;;
17382;SDS011;8809;51.892;8.384;2022-10-31T13:57:14;7.15;;;4.82;;
17382;SDS011;8809;51.892;8.384;2022-10-31T13:59:47;7.47;;;5.45;;
17382;SDS011;8809;51.892;8.384;2022-10-31T14:02:17;5.82;;;4.55;;
17382;SDS011;8809;51.892;8.384;2022-10-31T14:04:48;6.30;;;4.40;;
17382;SDS011;8809;51.892;8.384;2022-10-31T14:07:19;6.15;;;4.70;;
17382;SDS011;8809;51.892;8.384;2022-10-31T14:09:52;6.40;;;4.15;;
17382;SDS011;8809;51.892;8.384;2022-10-31T14:12:23;6.18;;;4.22;;
17382;SDS011;8809;51.892;8.384;2022-10-31T14:14:55;4.75;;;3.85;;
17382;SDS011;8809;51.892;8.384;2022-10-31T14:17:26;4.35;;;3.60;;
17382;SDS011;8809;51.892;8.384;2022-10-31T14:29:01;4.72;;;4.15;;
17382;SDS011;8809;51.892;8.384;2022-10-31T14:31:51;6.00;;;4.45;;
17382;SDS011;8809;51.892;8.384;2022-10-31T14:34:22;6.18;;;4.68;;
17382;SDS011;8809;51.892;8.384;2022-10-31T14:36:58;5.68;;;4.80;;
17382;SDS011;8809;51.892;8.384;2022-10-31T14:39:42;8.35;;;5.38;;
17382;SDS011;8809;51.892;8.384;2022-10-31T14:42:27;6.28;;;4.88;;
17382;SDS011;8809;51.892;8.384;2022-10-31T14:45:13;5.90;;;4.50;;
17382;SDS011;8809;51.892;8.384;2022-10-31T14:47:51;5.82;;;4.70;;
17382;SDS011;8809;51.892;8.384;2022-10-31T14:50:34;7.30;;;4.85;;
17382;SDS011;8809;51.892;8.384;2022-10-31T14:53:11;5.70;;;4.72;;
17382;SDS011;8809;51.892;8.384;2022-10-31T14:55:44;6.30;;;4.25;;
17382;SDS011;8809;51.892;8.384;2022-10-31T14:58:17;5.60;;;4.35;;
17382;SDS011;8809;51.892;8.384;2022-10-31T15:00:49;6.25;;;5.05;;
17382;SDS011;8809;51.892;8.384;2022-10-31T15:03:22;4.95;;;4.10;;
17382;SDS011;8809;51.892;8.384;2022-10-31T15:05:55;7.15;;;4.75;;
17382;SDS011;8809;51.892;8.384;2022-10-31T15:08:32;5.78;;;4.53;;
17382;SDS011;8809;51.892;8.384;2022-10-31T15:11:09;6.13;;;4.60;;
17382;SDS011;8809;51.892;8.384;2022-10-31T15:13:42;5.20;;;4.28;;
17382;SDS011;8809;51.892;8.384;2022-10-31T15:16:13;5.88;;;3.95;;
17382;SDS011;8809;51.892;8.384;2022-10-31T15:18:49;4.05;;;3.13;;
17382;SDS011;8809;51.892;8.384;2022-10-31T15:21:19;4.93;;;3.90;;
17382;SDS011;8809;51.892;8.384;2022-10-31T15:23:50;5.57;;;4.20;;
17382;SDS011;8809;51.892;8.384;2022-10-31T15:26:20;5.97;;;4.82;;
17382;SDS011;8809;51.892;8.384;2022-10-31T15:31:48;6.75;;;4.55;;
17382;SDS011;8809;51.892;8.384;2022-10-31T15:34:16;6.68;;;5.03;;
17382;SDS011;8809;51.892;8.384;2022-10-31T15:36:51;6.15;;;5.03;;
17382;SDS011;8809;51.892;8.384;2022-10-31T15:39:18;6.20;;;4.65;;
17382;SDS011;8809;51.892;8.384;2022-10-31T15:41:48;7.22;;;4.55;;
17382;SDS011;8809;51.892;8.384;2022-10-31T15:44:19;6.25;;;4.60;;
17382;SDS011;8809;51.892;8.384;2022-10-31T15:46:53;5.57;;;4.18;;